KMLS/MLS METAR and TAF weather

Enter ICAO airport designator
Station Type Date Time Source
KMLS METAR 2019/10/23 06:53 UTC NOAA

KMLS 230653Z AUTO 29010KT 10SM BKN047 06/02 A2979 RMK AO2 PK WND 28026/0559 SLP096 T00610022 401111011


Station Type Date Time Source
KMLS Decoded METAR 2019/10/23 06:53 UTC NOAA

MILES CITY WILEY FIELD, MT, United States (KMLS) 46-26N 105-53W 801M
Oct 23, 2019 - 02:53 AM EDT / 2019.10.23 0653 UTC
Wind: from the WNW (290 degrees) at 12 MPH (10 KT):0
Visibility: 10 mile(s):0
Sky conditions: mostly cloudy
Temperature: 43.0 F (6.1 C)
Dew Point: 36.0 F (2.2 C)
Relative Humidity: 76%
Pressure (altimeter): 29.79 in. Hg (1008 hPa)
ob: KMLS 230653Z AUTO 29010KT 10SM BKN047 06/02 A2979 RMK AO2 PK WND 28026/0559 SLP096 T00610022 401111011
cycle: 7

Station Type Date Time Source
KMLS TAF 2019/10/23 06:36 UTC NOAA

TAF KMLS 230533Z 2306/2406 27016G24KT P6SM VCSH SCT060 OVC120
FM231200 33014G20KT 5SM -RASN OVC020
FM231600 33012KT P6SM -RASN OVC020
FM240200 33010KT P6SM VCSH OVC050

Example: see airport list